createdAt,value
2023-02-13T00:01:39.306Z,85.65
2023-02-13T00:04:34.879Z,85.47
2023-02-13T00:07:01.360Z,84.97
2023-02-13T00:09:28.744Z,85.08
2023-02-13T00:11:55.243Z,84.93
2023-02-13T00:14:21.790Z,85.25
2023-02-13T00:16:48.244Z,85.07
2023-02-13T00:19:30.354Z,85.20
2023-02-13T00:22:10.191Z,85.11
2023-02-13T00:24:45.927Z,85.30
2023-02-13T00:27:27.438Z,85.22
2023-02-13T00:29:53.822Z,85.13
2023-02-13T00:32:25.590Z,84.63
2023-02-13T00:35:20.912Z,85.03
2023-02-13T00:37:47.471Z,84.72
2023-02-13T00:40:23.150Z,84.86
2023-02-13T00:43:38.414Z,85.21
2023-02-13T00:46:20.281Z,85.39
2023-02-13T00:49:14.882Z,85.27
2023-02-13T00:51:43.341Z,84.96
2023-02-13T00:54:12.811Z,85.50
2023-02-13T00:56:43.392Z,85.66
2023-02-13T00:59:09.792Z,85.47
2023-02-13T01:01:56.569Z,85.39
2023-02-13T01:04:24.087Z,85.54
2023-02-13T01:06:52.614Z,85.54
2023-02-13T01:09:21.075Z,85.52
2023-02-13T01:11:57.719Z,85.09
2023-02-13T01:14:25.387Z,85.20
2023-02-13T01:16:51.818Z,85.45
2023-02-13T01:19:19.269Z,85.71
2023-02-13T01:21:54.855Z,85.47
2023-02-13T01:24:57.427Z,85.44
2023-02-13T01:27:28.190Z,85.51
2023-02-13T01:29:55.007Z,85.36
2023-02-13T01:32:24.702Z,85.07
2023-02-13T01:34:58.164Z,85.48
2023-02-13T01:37:24.775Z,85.18
2023-02-13T01:40:06.895Z,86.11
2023-02-13T01:42:35.170Z,85.84
2023-02-13T01:45:13.763Z,85.77
2023-02-13T01:48:14.097Z,85.48
2023-02-13T01:51:01.000Z,85.35
2023-02-13T01:53:31.479Z,85.71
2023-02-13T01:56:30.743Z,85.76
2023-02-13T01:59:02.562Z,85.09
2023-02-13T02:01:31.419Z,85.95
2023-02-13T02:04:25.680Z,85.54
2023-02-13T02:07:11.482Z,85.33
2023-02-13T02:09:41.062Z,85.63
2023-02-13T02:12:36.901Z,85.49
2023-02-13T02:15:05.580Z,85.63
2023-02-13T02:17:32.044Z,86.08
2023-02-13T02:20:52.898Z,85.98
2023-02-13T02:23:58.404Z,85.86
2023-02-13T02:27:06.489Z,85.59
2023-02-13T02:30:05.048Z,85.26
2023-02-13T02:33:03.851Z,85.78
2023-02-13T02:35:54.996Z,85.85
2023-02-13T02:38:40.151Z,85.29
2023-02-13T02:41:35.467Z,85.33
2023-02-13T02:44:54.769Z,85.92
2023-02-13T02:47:56.713Z,85.62
2023-02-13T02:50:44.891Z,86.04
2023-02-13T02:53:37.970Z,85.88
2023-02-13T02:56:17.233Z,86.14
2023-02-13T02:59:34.027Z,85.83
2023-02-13T03:02:21.034Z,85.43
2023-02-13T03:05:16.089Z,85.60
2023-02-13T03:07:53.823Z,85.25
2023-02-13T03:10:50.010Z,85.47
2023-02-13T03:13:44.206Z,85.49
2023-02-13T03:16:34.563Z,85.87
2023-02-13T03:19:19.641Z,86.09
2023-02-13T03:22:06.669Z,86.06
2023-02-13T03:25:46.302Z,86.61
2023-02-13T03:28:55.318Z,86.40
2023-02-13T03:32:04.523Z,86.08
2023-02-13T03:35:06.850Z,86.50
2023-02-13T03:37:54.489Z,86.94
2023-02-13T03:40:31.230Z,86.11
2023-02-13T03:43:08.223Z,86.70
2023-02-13T03:45:54.341Z,86.25
2023-02-13T03:48:56.602Z,86.47
2023-02-13T03:51:55.978Z,86.19
2023-02-13T03:54:56.747Z,86.40
2023-02-13T03:58:10.966Z,86.24
2023-02-13T04:00:43.225Z,85.71
2023-02-13T04:03:24.012Z,85.97
2023-02-13T04:06:04.455Z,85.92
2023-02-13T04:08:31.060Z,86.32
2023-02-13T04:11:49.580Z,86.36
2023-02-13T04:14:30.188Z,86.27
2023-02-13T04:17:05.146Z,86.39
2023-02-13T04:19:32.860Z,86.63
2023-02-13T04:22:01.612Z,86.75
2023-02-13T04:24:28.065Z,86.58
2023-02-13T04:27:15.576Z,86.99
2023-02-13T04:29:44.220Z,86.92
2023-02-13T04:32:17.762Z,86.79
2023-02-13T04:34:45.374Z,86.85
2023-02-13T04:37:13.857Z,87.08
2023-02-13T04:39:42.325Z,86.56
2023-02-13T04:42:08.712Z,86.52
2023-02-13T04:44:43.185Z,86.60
2023-02-13T04:47:09.735Z,86.18
2023-02-13T04:49:45.344Z,86.16
2023-02-13T04:52:17.041Z,86.48
2023-02-13T04:54:43.735Z,86.55
2023-02-13T04:57:12.275Z,86.76
2023-02-13T04:59:38.702Z,86.31
2023-02-13T05:02:31.148Z,86.52
2023-02-13T05:05:04.950Z,86.98
2023-02-13T05:07:32.518Z,86.57
2023-02-13T05:10:19.273Z,86.94
2023-02-13T05:12:45.718Z,86.68
2023-02-13T05:15:12.309Z,86.77
2023-02-13T05:17:38.830Z,86.83
2023-02-13T05:20:06.990Z,86.66
2023-02-13T05:22:52.072Z,86.42
2023-02-13T05:25:18.464Z,86.53
2023-02-13T05:28:01.343Z,86.84
2023-02-13T05:30:52.121Z,86.69
2023-02-13T05:33:20.626Z,86.73
2023-02-13T05:35:47.080Z,86.82
2023-02-13T05:38:14.551Z,87.01
2023-02-13T05:40:42.073Z,86.93
2023-02-13T05:43:30.668Z,86.93
2023-02-13T05:46:06.589Z,87.21
2023-02-13T05:48:33.775Z,87.13
2023-02-13T05:51:04.997Z,87.22
2023-02-13T05:53:45.851Z,86.96
2023-02-13T05:56:13.349Z,87.55
2023-02-13T05:58:47.874Z,87.31
2023-02-13T06:01:16.328Z,87.67
2023-02-13T06:03:42.817Z,87.73
2023-02-13T06:06:09.320Z,87.75
2023-02-13T06:08:36.376Z,87.86
2023-02-13T06:11:07.082Z,88.01
2023-02-13T06:13:40.792Z,87.67
2023-02-13T06:16:11.643Z,87.39
2023-02-13T06:18:39.318Z,88.07
2023-02-13T06:21:07.583Z,87.88
2023-02-13T06:23:34.140Z,87.94
2023-02-13T06:26:07.935Z,87.48
2023-02-13T06:28:35.153Z,87.65
2023-02-13T06:31:02.109Z,87.67
2023-02-13T06:33:28.878Z,87.85
2023-02-13T06:36:01.583Z,87.55
2023-02-13T06:38:28.112Z,87.69
2023-02-13T06:41:00.558Z,87.42
2023-02-13T06:43:27.514Z,87.38
2023-02-13T06:46:09.532Z,87.51
2023-02-13T06:48:36.144Z,87.99
2023-02-13T06:51:02.996Z,88.15
2023-02-13T06:53:30.841Z,88.07
2023-02-13T06:55:57.713Z,87.95
2023-02-13T06:58:25.557Z,88.16
2023-02-13T07:00:52.536Z,88.10
2023-02-13T07:03:19.045Z,87.85
2023-02-13T07:05:45.575Z,88.06
2023-02-13T07:08:12.749Z,88.27
2023-02-13T07:10:41.102Z,88.02
2023-02-13T07:13:08.165Z,88.37
2023-02-13T07:15:35.796Z,88.36
2023-02-13T07:18:02.754Z,88.09
2023-02-13T07:20:29.317Z,88.15
2023-02-13T07:23:03.650Z,88.05
2023-02-13T07:25:30.699Z,88.44
2023-02-13T07:28:04.942Z,88.09
2023-02-13T07:30:32.849Z,88.24
2023-02-13T07:33:03.801Z,87.90
2023-02-13T07:35:30.775Z,88.10
2023-02-13T07:37:57.360Z,88.21
2023-02-13T07:40:23.809Z,87.95
2023-02-13T07:42:50.297Z,88.01
2023-02-13T07:45:16.819Z,88.28
2023-02-13T07:47:43.622Z,87.93
2023-02-13T07:50:10.472Z,88.15
2023-02-13T07:52:37.953Z,88.35
2023-02-13T07:55:05.659Z,87.99
2023-02-13T07:57:32.125Z,87.76
2023-02-13T07:59:58.548Z,88.06
2023-02-13T08:02:25.003Z,88.02
2023-02-13T08:04:51.391Z,87.69
2023-02-13T08:07:18.491Z,87.77
2023-02-13T08:10:04.093Z,87.74
2023-02-13T08:12:31.866Z,87.82
2023-02-13T08:14:58.399Z,87.70
2023-02-13T08:17:24.887Z,87.54
2023-02-13T08:19:51.312Z,87.51
2023-02-13T08:22:17.720Z,87.60
2023-02-13T08:24:44.208Z,87.90
2023-02-13T08:27:15.026Z,87.29
2023-02-13T08:29:41.872Z,87.47
2023-02-13T08:32:08.632Z,87.50
2023-02-13T08:34:35.082Z,87.27
2023-02-13T08:37:02.999Z,87.38
2023-02-13T08:39:29.611Z,87.56
2023-02-13T08:41:56.023Z,87.57
2023-02-13T08:44:22.428Z,87.38
2023-02-13T08:46:48.799Z,87.54
2023-02-13T08:49:15.264Z,87.31
2023-02-13T08:51:41.749Z,87.00
2023-02-13T08:54:08.204Z,86.99
2023-02-13T08:56:35.156Z,86.76
2023-02-13T08:59:01.683Z,86.76
2023-02-13T09:01:28.140Z,86.50
2023-02-13T09:03:55.405Z,86.33
2023-02-13T09:06:23.069Z,86.19
2023-02-13T09:08:49.617Z,86.12
2023-02-13T09:11:16.009Z,86.05
2023-02-13T09:13:42.537Z,85.46
2023-02-13T09:16:10.656Z,86.06
2023-02-13T09:18:37.429Z,85.32
2023-02-13T09:21:11.006Z,85.04
2023-02-13T09:23:40.087Z,84.74
2023-02-13T09:26:11.698Z,84.25
2023-02-13T09:28:38.504Z,84.38
2023-02-13T09:31:09.622Z,84.63
2023-02-13T09:33:37.038Z,83.83
2023-02-13T09:36:05.597Z,84.17
2023-02-13T09:38:33.078Z,84.07
2023-02-13T09:41:10.155Z,84.09
2023-02-13T09:43:44.884Z,84.44
2023-02-13T09:46:19.052Z,83.79
2023-02-13T09:48:50.093Z,84.18
2023-02-13T09:51:19.461Z,83.77
2023-02-13T09:54:03.432Z,83.56
2023-02-13T09:56:49.513Z,83.69
2023-02-13T09:59:45.312Z,84.07
2023-02-13T10:02:29.184Z,83.21
2023-02-13T10:05:16.914Z,83.22
2023-02-13T10:08:01.740Z,82.23
2023-02-13T10:10:33.884Z,82.23
2023-02-13T10:13:31.093Z,82.39
2023-02-13T10:16:15.315Z,81.66
2023-02-13T10:18:49.229Z,81.73
2023-02-13T10:21:21.610Z,81.51
2023-02-13T10:23:59.638Z,81.44
2023-02-13T10:26:42.600Z,81.32
2023-02-13T10:29:44.398Z,81.36
2023-02-13T10:32:15.892Z,80.82
2023-02-13T10:34:45.460Z,80.27
2023-02-13T10:37:20.520Z,79.76
2023-02-13T10:39:53.349Z,80.35
2023-02-13T10:42:45.092Z,80.14
2023-02-13T10:45:27.276Z,80.15
2023-02-13T10:48:17.971Z,80.63
2023-02-13T10:51:14.992Z,79.82
2023-02-13T10:53:56.755Z,79.28
2023-02-13T10:56:44.903Z,79.60
2023-02-13T10:59:40.067Z,79.38
2023-02-13T11:02:19.788Z,78.94
2023-02-13T11:04:46.649Z,78.77
2023-02-13T11:07:17.785Z,79.05
2023-02-13T11:09:49.450Z,78.78
2023-02-13T11:12:26.051Z,78.18
2023-02-13T11:15:01.957Z,78.04
2023-02-13T11:17:35.852Z,77.75
2023-02-13T11:20:07.529Z,77.77
2023-02-13T11:22:37.808Z,77.46
2023-02-13T11:25:17.041Z,77.23
2023-02-13T11:27:44.290Z,76.84
2023-02-13T11:30:23.016Z,77.10
2023-02-13T11:33:18.946Z,76.71
2023-02-13T11:35:46.833Z,76.21
2023-02-13T11:38:20.995Z,76.05
2023-02-13T11:40:51.541Z,75.65
2023-02-13T11:43:35.316Z,76.31
2023-02-13T11:46:04.422Z,75.79
2023-02-13T11:48:31.054Z,75.96
2023-02-13T11:50:58.213Z,76.15
2023-02-13T11:53:29.658Z,75.56
2023-02-13T11:56:06.224Z,75.34
2023-02-13T11:58:33.063Z,74.77
2023-02-13T12:01:24.696Z,74.95
2023-02-13T12:04:17.438Z,75.40
2023-02-13T12:07:00.566Z,75.52
2023-02-13T12:09:28.184Z,74.94
2023-02-13T12:11:58.652Z,74.32
2023-02-13T12:14:45.517Z,74.35
2023-02-13T12:17:31.349Z,73.54
2023-02-13T12:19:58.776Z,73.63
2023-02-13T12:22:51.970Z,73.22
2023-02-13T12:25:32.071Z,72.64
2023-02-13T12:28:11.277Z,72.83
2023-02-13T12:30:59.816Z,71.84
2023-02-13T12:33:40.447Z,71.35
2023-02-13T12:36:19.045Z,70.96
2023-02-13T12:39:11.584Z,72.03
2023-02-13T12:42:02.512Z,72.49
2023-02-13T12:44:58.920Z,72.24
2023-02-13T12:47:31.414Z,71.81
2023-02-13T12:50:22.083Z,72.64
2023-02-13T12:53:08.418Z,72.68
2023-02-13T12:55:45.222Z,72.49
2023-02-13T12:58:18.909Z,72.63
2023-02-13T13:01:17.741Z,72.24
2023-02-13T13:04:00.028Z,72.93
2023-02-13T13:06:48.184Z,72.71
2023-02-13T13:09:29.912Z,72.74
2023-02-13T13:12:15.168Z,72.25
2023-02-13T13:15:17.034Z,72.63
2023-02-13T13:17:57.445Z,72.78
2023-02-13T13:20:47.578Z,72.34
2023-02-13T13:23:20.445Z,71.87
2023-02-13T13:25:57.802Z,72.19
2023-02-13T13:28:34.839Z,72.55
2023-02-13T13:31:03.182Z,72.07
2023-02-13T13:33:30.952Z,72.04
2023-02-13T13:36:14.755Z,71.85
2023-02-13T13:39:02.090Z,72.00
2023-02-13T13:41:37.617Z,71.85
2023-02-13T13:44:22.872Z,72.06
2023-02-13T13:47:17.659Z,71.53
2023-02-13T13:49:53.834Z,71.24
2023-02-13T13:52:22.332Z,71.33
2023-02-13T13:54:51.652Z,71.10
2023-02-13T13:57:42.375Z,70.70
2023-02-13T14:00:08.727Z,70.79
2023-02-13T14:03:24.589Z,70.95
2023-02-13T14:06:04.654Z,70.32
2023-02-13T14:08:37.204Z,70.11
2023-02-13T14:11:04.384Z,69.78
2023-02-13T14:13:37.587Z,69.35
2023-02-13T14:16:06.669Z,68.51
2023-02-13T14:18:34.616Z,68.71
2023-02-13T14:21:06.140Z,67.30
2023-02-13T14:23:37.621Z,64.45
2023-02-13T14:26:25.052Z,60.97
2023-02-13T14:28:51.378Z,58.28
2023-02-13T14:31:23.154Z,56.94
2023-02-13T14:34:23.109Z,59.41
2023-02-13T14:37:10.521Z,61.47
2023-02-13T14:39:37.878Z,62.82
2023-02-13T14:42:26.130Z,64.64
2023-02-13T14:44:57.979Z,65.39
2023-02-13T14:47:33.495Z,65.91
2023-02-13T14:50:02.262Z,65.92
2023-02-13T14:52:34.257Z,66.06
2023-02-13T14:55:26.259Z,65.77
2023-02-13T14:57:59.827Z,66.54
2023-02-13T15:00:31.672Z,66.45
2023-02-13T15:03:26.727Z,67.12
2023-02-13T15:05:56.511Z,67.53
2023-02-13T15:08:32.025Z,67.84
2023-02-13T15:10:58.638Z,67.90
2023-02-13T15:13:34.778Z,68.27
2023-02-13T15:16:06.155Z,69.25
2023-02-13T15:18:47.503Z,69.26
2023-02-13T15:21:18.320Z,69.37
2023-02-13T15:23:49.270Z,69.96
2023-02-13T15:26:23.883Z,70.78
2023-02-13T15:29:02.158Z,70.80
2023-02-13T15:31:33.811Z,71.50
2023-02-13T15:34:01.306Z,71.10
2023-02-13T15:36:38.011Z,71.82
2023-02-13T15:39:10.946Z,72.35
2023-02-13T15:41:46.986Z,72.28
2023-02-13T15:44:18.612Z,72.82
2023-02-13T15:46:48.540Z,72.59
2023-02-13T15:49:21.720Z,73.09
2023-02-13T15:51:48.948Z,73.32
2023-02-13T15:54:27.833Z,73.68
2023-02-13T15:56:57.527Z,73.87
2023-02-13T15:59:26.483Z,73.79
2023-02-13T16:01:53.409Z,74.05
2023-02-13T16:04:21.324Z,74.25
2023-02-13T16:06:50.684Z,74.75
2023-02-13T16:09:34.398Z,75.22
2023-02-13T16:12:23.152Z,75.18
2023-02-13T16:14:55.117Z,75.26
2023-02-13T16:17:29.495Z,76.01
2023-02-13T16:20:03.077Z,75.18
2023-02-13T16:22:39.516Z,75.52
2023-02-13T16:25:11.941Z,75.88
2023-02-13T16:27:54.577Z,75.93
2023-02-13T16:30:37.294Z,76.27
2023-02-13T16:33:11.254Z,76.49
2023-02-13T16:35:40.714Z,77.24
2023-02-13T16:38:26.046Z,77.53
2023-02-13T16:40:52.985Z,77.76
2023-02-13T16:43:40.131Z,77.45
2023-02-13T16:46:29.904Z,77.56
2023-02-13T16:48:56.195Z,78.41
2023-02-13T16:51:31.562Z,78.49
2023-02-13T16:54:00.488Z,78.98
2023-02-13T16:56:26.977Z,78.77
2023-02-13T16:59:26.704Z,79.13
2023-02-13T17:02:14.924Z,79.39
2023-02-13T17:04:53.723Z,79.59
2023-02-13T17:07:26.690Z,80.37
2023-02-13T17:09:55.715Z,80.42
2023-02-13T17:12:23.042Z,80.88
2023-02-13T17:14:49.533Z,80.86
2023-02-13T17:17:20.027Z,81.23
2023-02-13T17:19:47.267Z,81.21
2023-02-13T17:22:21.681Z,82.01
2023-02-13T17:24:48.143Z,81.84
2023-02-13T17:27:14.808Z,81.61
2023-02-13T17:29:41.320Z,82.09
2023-02-13T17:32:14.613Z,82.13
2023-02-13T17:34:41.032Z,82.30
2023-02-13T17:37:22.859Z,82.30
2023-02-13T17:39:49.906Z,82.61
2023-02-13T17:42:28.339Z,82.70
2023-02-13T17:44:56.407Z,82.78
2023-02-13T17:47:24.461Z,83.34
2023-02-13T17:49:52.404Z,83.00
2023-02-13T17:52:27.729Z,83.42
2023-02-13T17:54:54.280Z,83.51
2023-02-13T17:57:20.669Z,83.44
2023-02-13T17:59:47.537Z,83.78
2023-02-13T18:02:22.669Z,83.92
2023-02-13T18:04:49.578Z,83.87
2023-02-13T18:07:20.908Z,83.95
2023-02-13T18:09:47.853Z,83.99
2023-02-13T18:12:20.181Z,84.05
2023-02-13T18:14:47.255Z,84.31
2023-02-13T18:17:14.505Z,84.34
2023-02-13T18:19:41.263Z,84.03
2023-02-13T18:22:09.010Z,83.96
2023-02-13T18:24:40.382Z,84.20
2023-02-13T18:27:08.298Z,84.50
2023-02-13T18:29:38.621Z,84.10
2023-02-13T18:32:10.429Z,83.98
2023-02-13T18:34:38.189Z,84.48
2023-02-13T18:37:06.382Z,84.32
2023-02-13T18:39:32.931Z,84.49
2023-02-13T18:41:59.341Z,84.60
2023-02-13T18:44:28.745Z,84.49
2023-02-13T18:47:01.818Z,84.70
2023-02-13T18:49:28.542Z,85.06
2023-02-13T18:52:04.049Z,85.48
2023-02-13T18:54:30.487Z,85.21
2023-02-13T18:56:57.019Z,85.48
2023-02-13T18:59:23.585Z,85.21
2023-02-13T19:01:50.968Z,85.50
2023-02-13T19:04:17.562Z,86.09
2023-02-13T19:06:44.822Z,85.93
2023-02-13T19:09:11.560Z,85.98
2023-02-13T19:11:39.475Z,86.02
2023-02-13T19:14:06.157Z,85.72
2023-02-13T19:16:34.631Z,85.61
2023-02-13T19:19:03.266Z,85.79
2023-02-13T19:21:31.493Z,86.15
2023-02-13T19:23:57.935Z,86.04
2023-02-13T19:26:26.588Z,85.94
2023-02-13T19:28:53.586Z,85.68
2023-02-13T19:31:22.323Z,85.96
2023-02-13T19:33:50.031Z,85.93
2023-02-13T19:36:22.272Z,86.00
2023-02-13T19:38:54.334Z,85.86
2023-02-13T19:41:20.864Z,86.04
2023-02-13T19:43:50.959Z,86.28
2023-02-13T19:46:19.475Z,86.19
2023-02-13T19:48:46.788Z,85.94
2023-02-13T19:51:15.331Z,86.25
2023-02-13T19:53:42.219Z,86.03
2023-02-13T19:56:09.768Z,86.31
2023-02-13T19:58:40.363Z,86.33
2023-02-13T20:01:15.503Z,86.07
2023-02-13T20:03:43.099Z,85.81
2023-02-13T20:06:16.063Z,85.50
2023-02-13T20:08:43.109Z,86.21
2023-02-13T20:11:11.020Z,85.72
2023-02-13T20:13:38.253Z,86.12
2023-02-13T20:16:10.428Z,86.13
2023-02-13T20:18:38.729Z,86.32
2023-02-13T20:21:06.857Z,86.38
2023-02-13T20:23:33.310Z,86.28
2023-02-13T20:26:08.249Z,86.38
2023-02-13T20:28:34.803Z,86.26
2023-02-13T20:31:03.882Z,86.12
2023-02-13T20:33:30.605Z,86.15
2023-02-13T20:35:57.058Z,86.11
2023-02-13T20:38:23.456Z,86.47
2023-02-13T20:40:49.835Z,86.05
2023-02-13T20:43:16.210Z,86.48
2023-02-13T20:45:42.728Z,86.61
2023-02-13T20:48:09.197Z,86.60
2023-02-13T20:50:35.565Z,86.92
2023-02-13T20:53:01.994Z,87.01
2023-02-13T20:55:28.354Z,86.81
2023-02-13T20:57:54.755Z,87.21
2023-02-13T21:00:21.402Z,86.97
2023-02-13T21:02:47.866Z,86.62
2023-02-13T21:05:14.321Z,86.75
2023-02-13T21:07:40.998Z,86.44
2023-02-13T21:10:07.920Z,87.01
2023-02-13T21:12:34.956Z,86.79
2023-02-13T21:15:01.398Z,86.81
2023-02-13T21:17:27.756Z,86.92
2023-02-13T21:19:54.291Z,86.85
2023-02-13T21:22:20.691Z,86.50
2023-02-13T21:24:50.429Z,86.60
2023-02-13T21:27:17.125Z,86.89
2023-02-13T21:29:43.509Z,86.89
2023-02-13T21:32:10.165Z,87.06
2023-02-13T21:34:36.745Z,86.61
2023-02-13T21:37:03.303Z,86.66
2023-02-13T21:39:29.795Z,87.03
2023-02-13T21:41:56.202Z,87.28
2023-02-13T21:44:22.609Z,87.11
2023-02-13T21:46:49.718Z,87.73
2023-02-13T21:49:17.804Z,87.63
2023-02-13T21:51:49.256Z,87.43
2023-02-13T21:54:15.620Z,87.21
2023-02-13T21:56:43.017Z,87.13
2023-02-13T21:59:14.433Z,86.63
2023-02-13T22:01:41.251Z,87.03
2023-02-13T22:04:11.512Z,87.41
2023-02-13T22:06:39.818Z,87.32
2023-02-13T22:09:12.605Z,87.22
2023-02-13T22:11:39.608Z,87.14
2023-02-13T22:14:08.087Z,87.22
2023-02-13T22:16:44.180Z,87.17
2023-02-13T22:19:15.062Z,87.46
2023-02-13T22:21:44.571Z,87.30
2023-02-13T22:24:16.974Z,87.59
2023-02-13T22:26:45.288Z,87.47
2023-02-13T22:29:15.092Z,87.83
2023-02-13T22:31:41.819Z,87.65
2023-02-13T22:34:13.263Z,87.89
2023-02-13T22:36:40.096Z,87.58
2023-02-13T22:39:08.201Z,87.37
2023-02-13T22:41:45.519Z,87.38
2023-02-13T22:44:11.933Z,87.02
2023-02-13T22:46:39.403Z,87.33
2023-02-13T22:49:06.994Z,87.28
2023-02-13T22:51:37.126Z,87.57
2023-02-13T22:54:05.889Z,87.05
2023-02-13T22:56:32.706Z,87.48
2023-02-13T22:58:59.881Z,87.53
2023-02-13T23:01:28.121Z,87.66
2023-02-13T23:03:55.627Z,87.10
2023-02-13T23:06:29.778Z,86.97
2023-02-13T23:08:56.860Z,87.37
2023-02-13T23:11:44.494Z,87.35
2023-02-13T23:14:12.363Z,87.11
2023-02-13T23:16:58.464Z,87.71
2023-02-13T23:19:25.537Z,87.53
2023-02-13T23:21:51.935Z,87.36
2023-02-13T23:24:18.506Z,87.48
2023-02-13T23:26:45.011Z,87.58
2023-02-13T23:29:17.370Z,87.74
2023-02-13T23:31:43.867Z,87.29
2023-02-13T23:34:10.489Z,87.42
2023-02-13T23:36:36.865Z,87.64
2023-02-13T23:39:03.295Z,87.25
2023-02-13T23:41:29.705Z,87.33
2023-02-13T23:43:56.226Z,86.89
2023-02-13T23:46:22.672Z,87.37
2023-02-13T23:48:49.054Z,86.89
2023-02-13T23:51:18.488Z,86.97
2023-02-13T23:53:44.903Z,87.00
2023-02-13T23:56:11.312Z,87.51
2023-02-13T23:58:37.693Z,87.25
